« Back
NWS Peachtree City, Ga » Text Product » MCN Terminal Aerodrome Forecast


Printer-friendly Version
Current Version              Previous Versions:   1  2  3  4  5  6  7  8  9  

Terminal Aerodrome Forecast

710
FTUS42 KFFC 010500
TAFMCN
TAF
KMCN 010534Z 0106/0206 04005KT P6SM BKN015
     FM010900 04003KT P6SM BKN008
     FM011500 06005KT P6SM BKN015
     FM011700 04004KT P6SM BKN040 PROB30 0118/0123 4SM -TSRA BR
      BKN025CB
     FM012300 05004KT P6SM VCSH SCT025 BKN080=

USA.gov is the U.S. government's official web portal to all federal, state and local government web resources and services.